createdAt,value
2019-02-27T00:02:22.697Z,5.71
2019-02-27T00:04:51.240Z,5.50
2019-02-27T00:07:23.000Z,5.43
2019-02-27T00:09:53.461Z,5.17
2019-02-27T00:12:23.965Z,5.10
2019-02-27T00:14:55.870Z,4.96
2019-02-27T00:17:25.046Z,4.74
2019-02-27T00:19:55.531Z,4.56
2019-02-27T00:22:27.473Z,4.60
2019-02-27T00:25:02.985Z,4.59
2019-02-27T00:27:32.002Z,4.56
2019-02-27T00:30:05.603Z,4.66
2019-02-27T00:32:36.067Z,4.68
2019-02-27T00:35:07.321Z,4.74
2019-02-27T00:37:38.912Z,4.88
2019-02-27T00:40:11.219Z,4.97
2019-02-27T00:42:42.699Z,5.03
2019-02-27T00:45:13.138Z,4.91
2019-02-27T00:47:43.429Z,4.86
2019-02-27T00:50:13.937Z,4.80
2019-02-27T00:52:50.890Z,4.77
2019-02-27T00:55:19.857Z,4.67
2019-02-27T00:57:51.821Z,4.56
2019-02-27T01:00:21.336Z,4.75
2019-02-27T01:02:53.449Z,4.79
2019-02-27T01:05:23.567Z,4.66
2019-02-27T01:07:56.132Z,4.72
2019-02-27T01:10:25.883Z,4.62
2019-02-27T01:12:58.212Z,4.35
2019-02-27T01:15:28.016Z,4.36
2019-02-27T01:18:00.520Z,4.29
2019-02-27T01:20:33.853Z,4.29
2019-02-27T01:23:03.873Z,4.06
2019-02-27T01:25:36.661Z,3.88
2019-02-27T01:28:11.151Z,3.65
2019-02-27T01:30:41.721Z,3.33
2019-02-27T01:33:11.395Z,3.27
2019-02-27T01:35:42.825Z,3.03
2019-02-27T01:38:15.280Z,3.16
2019-02-27T01:40:45.394Z,3.12
2019-02-27T01:43:17.614Z,3.25
2019-02-27T01:45:47.635Z,3.23
2019-02-27T01:48:22.962Z,3.19
2019-02-27T01:50:54.964Z,3.20
2019-02-27T01:53:24.891Z,3.14
2019-02-27T01:55:56.371Z,3.11
2019-02-27T01:58:28.420Z,3.10
2019-02-27T02:00:58.610Z,3.07
2019-02-27T02:03:28.929Z,3.14
2019-02-27T02:05:59.899Z,3.26
2019-02-27T02:08:33.423Z,3.29
2019-02-27T02:11:04.011Z,3.37
2019-02-27T02:13:57.712Z,3.26
2019-02-27T02:16:52.491Z,3.23
2019-02-27T02:20:03.569Z,3.33
2019-02-27T02:22:54.179Z,3.35
2019-02-27T02:26:01.063Z,3.21
2019-02-27T02:29:42.546Z,3.13
2019-02-27T02:32:28.378Z,2.93
2019-02-27T02:35:14.615Z,2.74
2019-02-27T02:38:24.486Z,2.82
2019-02-27T02:41:30.064Z,2.66
2019-02-27T02:44:49.318Z,2.54
2019-02-27T02:47:43.738Z,2.57
2019-02-27T02:51:06.420Z,2.44
2019-02-27T02:54:26.952Z,2.41
2019-02-27T02:57:46.072Z,2.48
2019-02-27T03:01:00.756Z,2.57
2019-02-27T03:04:06.419Z,2.64
2019-02-27T03:07:11.060Z,2.78
2019-02-27T03:10:18.908Z,2.95
2019-02-27T03:13:25.365Z,2.90
2019-02-27T03:16:32.939Z,2.98
2019-02-27T03:19:13.729Z,3.08
2019-02-27T03:22:29.236Z,3.15
2019-02-27T03:25:43.412Z,3.26
2019-02-27T03:28:42.056Z,3.28
2019-02-27T03:31:41.102Z,3.11
2019-02-27T03:35:12.746Z,3.09
2019-02-27T03:38:30.924Z,2.96
2019-02-27T03:41:59.442Z,3.02
2019-02-27T03:45:08.075Z,2.84
2019-02-27T03:48:29.720Z,2.56
2019-02-27T03:51:40.920Z,2.44
2019-02-27T03:54:27.960Z,2.53
2019-02-27T03:57:22.177Z,2.47
2019-02-27T04:00:22.014Z,2.42
2019-02-27T04:03:23.179Z,2.55
2019-02-27T04:06:41.727Z,2.63
2019-02-27T04:09:12.144Z,2.48
2019-02-27T04:11:43.517Z,2.38
2019-02-27T04:14:40.204Z,2.39
2019-02-27T04:17:10.991Z,2.32
2019-02-27T04:19:41.534Z,2.24
2019-02-27T04:22:11.016Z,2.14
2019-02-27T04:24:47.352Z,2.12
2019-02-27T04:27:21.218Z,1.97
2019-02-27T04:29:48.127Z,2.06
2019-02-27T04:32:20.793Z,2.04
2019-02-27T04:34:53.266Z,2.06
2019-02-27T04:37:29.228Z,2.01
2019-02-27T04:40:04.221Z,2.08
2019-02-27T04:42:35.748Z,2.00
2019-02-27T04:45:06.066Z,1.98
2019-02-27T04:47:36.797Z,2.00
2019-02-27T04:50:11.332Z,1.87
2019-02-27T04:52:40.896Z,1.88
2019-02-27T04:55:13.089Z,1.81
2019-02-27T04:57:44.567Z,1.89
2019-02-27T05:00:15.530Z,1.99
2019-02-27T05:02:45.823Z,1.89
2019-02-27T05:05:18.096Z,1.57
2019-02-27T05:07:48.594Z,1.82
2019-02-27T05:10:21.691Z,1.90
2019-02-27T05:12:51.937Z,1.63
2019-02-27T05:15:22.511Z,1.62
2019-02-27T05:17:59.023Z,1.66
2019-02-27T05:20:28.755Z,1.68
2019-02-27T05:23:01.067Z,1.69
2019-02-27T05:25:31.311Z,1.55
2019-02-27T05:28:02.976Z,1.35
2019-02-27T05:30:32.933Z,1.20
2019-02-27T05:33:03.050Z,1.12
2019-02-27T05:35:33.297Z,1.04
2019-02-27T05:38:08.756Z,1.15
2019-02-27T05:40:43.160Z,1.05
2019-02-27T05:43:18.973Z,1.12
2019-02-27T05:45:52.039Z,1.21
2019-02-27T05:48:21.643Z,1.18
2019-02-27T05:50:51.097Z,1.30
2019-02-27T05:53:22.931Z,1.20
2019-02-27T05:55:53.348Z,1.24
2019-02-27T05:58:24.680Z,1.19
2019-02-27T06:00:54.383Z,1.33
2019-02-27T06:03:24.672Z,1.29
2019-02-27T06:05:54.892Z,1.34
2019-02-27T06:08:29.827Z,1.28
2019-02-27T06:11:01.425Z,1.14
2019-02-27T06:13:33.453Z,1.04
2019-02-27T06:16:06.042Z,1.14
2019-02-27T06:18:39.779Z,1.04
2019-02-27T06:21:13.384Z,0.86
2019-02-27T06:23:42.404Z,0.76
2019-02-27T06:26:13.939Z,0.63
2019-02-27T06:28:43.685Z,0.57
2019-02-27T06:31:13.132Z,0.61
2019-02-27T06:33:59.024Z,0.71
2019-02-27T06:36:28.978Z,0.87
2019-02-27T06:39:04.869Z,0.88
2019-02-27T06:41:35.508Z,0.98
2019-02-27T06:44:06.638Z,0.99
2019-02-27T06:46:41.890Z,1.02
2019-02-27T06:49:18.399Z,1.18
2019-02-27T06:51:48.738Z,1.28
2019-02-27T06:54:20.022Z,1.21
2019-02-27T06:56:49.673Z,1.27
2019-02-27T06:59:19.075Z,1.44
2019-02-27T07:01:49.449Z,1.61
2019-02-27T07:04:18.916Z,1.66
2019-02-27T07:06:54.963Z,1.73
2019-02-27T07:09:22.635Z,1.83
2019-02-27T07:11:51.802Z,1.91
2019-02-27T07:14:39.234Z,1.82
2019-02-27T07:17:07.576Z,1.85
2019-02-27T07:19:37.117Z,1.91
2019-02-27T07:22:08.868Z,1.99
2019-02-27T07:24:37.569Z,1.93
2019-02-27T07:27:21.268Z,2.00
2019-02-27T07:29:53.335Z,1.98
2019-02-27T07:32:22.663Z,2.06
2019-02-27T07:34:53.484Z,2.20
2019-02-27T07:37:23.012Z,1.91
2019-02-27T07:39:54.221Z,1.87
2019-02-27T07:42:24.473Z,2.04
2019-02-27T07:44:54.767Z,2.25
2019-02-27T07:47:23.961Z,2.26
2019-02-27T07:49:56.286Z,2.23
2019-02-27T07:52:32.217Z,2.33
2019-02-27T07:54:59.250Z,2.32
2019-02-27T07:57:29.602Z,2.38
2019-02-27T07:59:59.086Z,2.29
2019-02-27T08:02:28.802Z,2.66
2019-02-27T08:04:58.274Z,2.78
2019-02-27T08:07:28.590Z,2.91
2019-02-27T08:10:04.548Z,2.98
2019-02-27T08:12:36.147Z,2.94
2019-02-27T08:15:07.638Z,2.79
2019-02-27T08:17:39.902Z,2.97
2019-02-27T08:20:11.493Z,3.12
2019-02-27T08:22:41.814Z,3.15
2019-02-27T08:25:11.974Z,3.23
2019-02-27T08:27:43.752Z,3.51
2019-02-27T08:30:19.538Z,3.60
2019-02-27T08:32:49.668Z,3.91
2019-02-27T08:35:18.975Z,3.94
2019-02-27T08:37:50.460Z,4.07
2019-02-27T08:40:24.228Z,4.16
2019-02-27T08:42:53.003Z,4.31
2019-02-27T08:45:26.728Z,4.63
2019-02-27T08:47:56.932Z,4.91
2019-02-27T08:50:29.288Z,5.21
2019-02-27T08:52:57.970Z,5.44
2019-02-27T08:55:28.772Z,5.66
2019-02-27T08:58:00.114Z,5.92
2019-02-27T09:00:31.071Z,6.12
2019-02-27T09:03:02.941Z,6.38
2019-02-27T09:05:32.033Z,6.31
2019-02-27T09:08:01.323Z,6.59
2019-02-27T09:10:30.908Z,6.78
2019-02-27T09:13:05.330Z,6.94
2019-02-27T09:15:35.869Z,7.30
2019-02-27T09:18:05.058Z,7.49
2019-02-27T09:20:35.398Z,7.85
2019-02-27T09:23:05.952Z,8.15
2019-02-27T09:25:35.139Z,8.58
2019-02-27T09:28:09.208Z,8.76
2019-02-27T09:30:37.330Z,9.05
2019-02-27T09:33:06.507Z,9.09
2019-02-27T09:35:56.837Z,9.21
2019-02-27T09:38:26.582Z,9.58
2019-02-27T09:40:56.541Z,9.81
2019-02-27T09:43:27.223Z,10.07
2019-02-27T09:45:58.184Z,10.37
2019-02-27T09:48:33.417Z,10.52
2019-02-27T09:51:02.766Z,10.89
2019-02-27T09:53:36.786Z,11.11
2019-02-27T09:56:08.493Z,11.36
2019-02-27T09:58:45.088Z,11.74
2019-02-27T10:01:16.704Z,11.98
2019-02-27T10:03:52.060Z,11.78
2019-02-27T10:06:21.454Z,12.18
2019-02-27T10:08:50.730Z,12.55
2019-02-27T10:11:22.282Z,13.01
2019-02-27T10:13:52.375Z,13.32
2019-02-27T10:16:21.553Z,13.34
2019-02-27T10:18:54.837Z,13.67
2019-02-27T10:21:21.700Z,12.98
2019-02-27T10:23:50.965Z,13.50
2019-02-27T10:26:22.729Z,13.77
2019-02-27T10:28:52.745Z,14.22
2019-02-27T10:31:22.254Z,14.46
2019-02-27T10:33:51.904Z,14.55
2019-02-27T10:36:21.752Z,14.32
2019-02-27T10:38:51.761Z,14.45
2019-02-27T10:41:22.132Z,14.91
2019-02-27T10:43:54.001Z,15.26
2019-02-27T10:46:23.751Z,15.67
2019-02-27T10:49:01.993Z,15.72
2019-02-27T10:51:31.499Z,15.50
2019-02-27T10:54:04.519Z,15.70
2019-02-27T10:56:32.425Z,15.88
2019-02-27T10:59:01.654Z,15.96
2019-02-27T11:01:33.214Z,16.58
2019-02-27T11:04:04.532Z,16.96
2019-02-27T11:06:37.127Z,17.06
2019-02-27T11:09:06.461Z,16.62
2019-02-27T11:11:37.445Z,16.83
2019-02-27T11:14:07.426Z,16.09
2019-02-27T11:16:36.976Z,15.78
2019-02-27T11:19:08.565Z,16.65
2019-02-27T11:21:38.821Z,16.83
2019-02-27T11:24:09.177Z,17.32
2019-02-27T11:26:41.569Z,17.23
2019-02-27T11:29:12.556Z,17.29
2019-02-27T11:31:48.963Z,16.93
2019-02-27T11:34:22.025Z,16.21
2019-02-27T11:36:51.571Z,17.15
2019-02-27T11:39:21.268Z,16.92
2019-02-27T11:41:51.030Z,16.94
2019-02-27T11:44:21.969Z,17.34
2019-02-27T11:46:58.656Z,16.79
2019-02-27T11:49:23.196Z,16.73
2019-02-27T11:51:53.211Z,16.99
2019-02-27T11:54:23.240Z,16.31
2019-02-27T11:56:56.195Z,16.71
2019-02-27T11:59:28.212Z,17.21
2019-02-27T12:01:58.275Z,18.26
2019-02-27T12:04:27.669Z,18.88
2019-02-27T12:06:57.037Z,19.23
2019-02-27T12:09:26.231Z,19.51
2019-02-27T12:11:56.237Z,19.62
2019-02-27T12:14:25.446Z,19.53
2019-02-27T12:16:54.658Z,19.43
2019-02-27T12:19:23.907Z,18.85
2019-02-27T12:21:53.164Z,19.90
2019-02-27T12:24:23.095Z,20.43
2019-02-27T12:26:53.971Z,20.83
2019-02-27T12:29:24.124Z,20.83
2019-02-27T12:31:55.279Z,20.71
2019-02-27T12:34:25.958Z,20.72
2019-02-27T12:36:55.448Z,20.95
2019-02-27T12:39:25.803Z,21.24
2019-02-27T12:42:07.094Z,20.95
2019-02-27T12:44:38.149Z,21.15
2019-02-27T12:47:08.214Z,20.81
2019-02-27T12:49:37.398Z,21.20
2019-02-27T12:52:12.052Z,21.36
2019-02-27T12:54:43.864Z,21.71
2019-02-27T12:57:17.436Z,21.66
2019-02-27T12:59:53.502Z,21.87
2019-02-27T13:02:35.271Z,21.89
2019-02-27T13:05:01.650Z,22.26
2019-02-27T13:07:34.633Z,22.37
2019-02-27T13:10:08.400Z,22.17
2019-02-27T13:12:39.486Z,22.77
2019-02-27T13:15:10.249Z,23.21
2019-02-27T13:17:39.852Z,23.21
2019-02-27T13:20:17.465Z,22.97
2019-02-27T13:22:47.278Z,23.07
2019-02-27T13:25:17.204Z,23.14
2019-02-27T13:27:48.028Z,22.77
2019-02-27T13:30:20.299Z,21.65
2019-02-27T13:32:50.340Z,19.95
2019-02-27T13:35:23.003Z,20.54
2019-02-27T13:37:57.255Z,21.25
2019-02-27T13:40:35.237Z,22.40
2019-02-27T13:43:02.720Z,23.28
2019-02-27T13:45:36.118Z,23.35
2019-02-27T13:48:06.188Z,21.67
2019-02-27T13:50:42.529Z,20.44
2019-02-27T13:53:12.553Z,20.77
2019-02-27T13:55:45.307Z,21.11
2019-02-27T13:58:15.929Z,21.65
2019-02-27T14:00:53.568Z,20.80
2019-02-27T14:03:23.006Z,22.75
2019-02-27T14:05:54.386Z,23.09
2019-02-27T14:08:29.062Z,23.56
2019-02-27T14:11:01.185Z,23.93
2019-02-27T14:13:35.109Z,23.52
2019-02-27T14:16:06.950Z,23.30
2019-02-27T14:18:40.544Z,23.71
2019-02-27T14:21:14.993Z,23.98
2019-02-27T14:23:47.111Z,24.44
2019-02-27T14:26:18.960Z,24.54
2019-02-27T14:28:48.427Z,23.69
2019-02-27T14:31:19.902Z,24.26
2019-02-27T14:33:54.084Z,23.72
2019-02-27T14:36:22.845Z,24.13
2019-02-27T14:38:53.333Z,24.70
2019-02-27T14:41:22.933Z,25.25
2019-02-27T14:43:52.921Z,24.70
2019-02-27T14:46:22.734Z,24.48
2019-02-27T14:48:52.600Z,24.52
2019-02-27T14:51:25.381Z,24.96
2019-02-27T14:53:55.828Z,25.09
2019-02-27T14:56:25.149Z,24.64
2019-02-27T14:58:56.606Z,24.80
2019-02-27T15:01:27.839Z,24.58
2019-02-27T15:04:00.422Z,24.70
2019-02-27T15:06:28.326Z,24.24
2019-02-27T15:08:58.358Z,24.29
2019-02-27T15:11:30.492Z,24.91
2019-02-27T15:14:00.538Z,24.72
2019-02-27T15:16:30.194Z,24.39
2019-02-27T15:19:00.182Z,24.10
2019-02-27T15:21:31.925Z,23.63
2019-02-27T15:24:02.728Z,23.57
2019-02-27T15:26:44.859Z,23.84
2019-02-27T15:29:08.953Z,24.15
2019-02-27T15:31:40.171Z,24.69
2019-02-27T15:34:13.484Z,25.19
2019-02-27T15:36:43.047Z,24.92
2019-02-27T15:39:12.528Z,24.99
2019-02-27T15:41:44.979Z,24.91
2019-02-27T15:44:15.743Z,24.89
2019-02-27T15:46:46.309Z,25.83
2019-02-27T15:49:18.038Z,26.68
2019-02-27T15:52:17.316Z,26.61
2019-02-27T15:54:46.780Z,26.66
2019-02-27T15:57:20.624Z,25.66
2019-02-27T15:59:51.794Z,26.04
2019-02-27T16:02:21.529Z,25.93
2019-02-27T16:04:55.494Z,26.69
2019-02-27T16:07:31.880Z,27.53
2019-02-27T16:10:06.779Z,26.77
2019-02-27T16:12:33.994Z,26.39
2019-02-27T16:15:03.932Z,25.39
2019-02-27T16:17:33.148Z,24.96
2019-02-27T16:20:02.318Z,25.06
2019-02-27T16:22:33.908Z,24.44
2019-02-27T16:25:04.377Z,25.21
2019-02-27T16:27:35.372Z,24.79
2019-02-27T16:30:07.170Z,24.35
2019-02-27T16:32:36.855Z,24.32
2019-02-27T16:35:16.772Z,24.32
2019-02-27T16:37:47.517Z,24.80
2019-02-27T16:40:25.250Z,24.65
2019-02-27T16:42:56.844Z,23.33
2019-02-27T16:45:34.792Z,23.26
2019-02-27T16:48:07.730Z,22.25
2019-02-27T16:50:45.711Z,21.33
2019-02-27T16:53:19.516Z,20.84
2019-02-27T16:55:50.820Z,19.84
2019-02-27T16:58:21.384Z,19.41
2019-02-27T17:00:55.396Z,19.05
2019-02-27T17:03:25.109Z,18.96
2019-02-27T17:05:54.920Z,18.59
2019-02-27T17:08:25.520Z,18.39
2019-02-27T17:10:55.815Z,18.46
2019-02-27T17:13:26.256Z,18.28
2019-02-27T17:15:58.094Z,17.99
2019-02-27T17:18:29.282Z,17.82
2019-02-27T17:21:05.362Z,17.52
2019-02-27T17:23:54.031Z,17.54
2019-02-27T17:26:39.839Z,17.26
2019-02-27T17:29:32.178Z,17.18
2019-02-27T17:32:01.987Z,17.22
2019-02-27T17:34:31.345Z,17.05
2019-02-27T17:37:03.621Z,16.72
2019-02-27T17:39:35.410Z,16.55
2019-02-27T17:42:05.012Z,16.50
2019-02-27T17:44:41.282Z,16.50
2019-02-27T17:47:18.543Z,16.23
2019-02-27T17:49:50.145Z,16.04
2019-02-27T17:52:19.853Z,15.78
2019-02-27T17:54:49.037Z,15.68
2019-02-27T17:57:24.254Z,15.48
2019-02-27T18:00:02.597Z,15.30
2019-02-27T18:02:33.274Z,15.31
2019-02-27T18:05:04.616Z,15.12
2019-02-27T18:07:34.745Z,15.11
2019-02-27T18:10:03.986Z,15.11
2019-02-27T18:12:33.178Z,14.77
2019-02-27T18:15:04.012Z,14.84
2019-02-27T18:17:34.948Z,14.66
2019-02-27T18:20:04.584Z,14.68
2019-02-27T18:22:34.132Z,14.60
2019-02-27T18:25:07.546Z,14.56
2019-02-27T18:27:37.349Z,14.31
2019-02-27T18:30:08.843Z,13.94
2019-02-27T18:32:39.915Z,13.80
2019-02-27T18:35:13.332Z,13.71
2019-02-27T18:37:42.928Z,13.63
2019-02-27T18:40:15.703Z,13.69
2019-02-27T18:42:55.233Z,13.69
2019-02-27T18:45:28.867Z,13.81
2019-02-27T18:48:07.404Z,13.79
2019-02-27T18:50:37.766Z,13.49
2019-02-27T18:53:12.941Z,13.36
2019-02-27T18:55:45.120Z,12.99
2019-02-27T18:58:18.250Z,12.90
2019-02-27T19:00:50.611Z,12.93
2019-02-27T19:03:25.904Z,12.89
2019-02-27T19:05:57.447Z,12.52
2019-02-27T19:08:28.091Z,12.44
2019-02-27T19:11:03.793Z,12.31
2019-02-27T19:13:33.789Z,12.19
2019-02-27T19:16:06.558Z,12.11
2019-02-27T19:18:41.130Z,12.06
2019-02-27T19:21:13.168Z,11.96
2019-02-27T19:23:44.859Z,11.89
2019-02-27T19:26:17.010Z,11.75
2019-02-27T19:28:47.216Z,11.72
2019-02-27T19:31:18.934Z,11.54
2019-02-27T19:33:53.653Z,11.46
2019-02-27T19:36:30.490Z,11.44
2019-02-27T19:38:59.907Z,11.36
2019-02-27T19:41:40.920Z,11.06
2019-02-27T19:44:13.181Z,11.08
2019-02-27T19:46:47.458Z,10.95
2019-02-27T19:49:18.094Z,11.04
2019-02-27T19:51:54.868Z,11.10
2019-02-27T19:54:24.055Z,11.01
2019-02-27T19:56:55.222Z,10.80
2019-02-27T19:59:30.209Z,10.91
2019-02-27T20:02:00.353Z,11.01
2019-02-27T20:04:29.907Z,10.89
2019-02-27T20:07:09.990Z,10.62
2019-02-27T20:09:42.127Z,10.71
2019-02-27T20:12:16.578Z,10.81
2019-02-27T20:14:48.413Z,10.65
2019-02-27T20:17:32.862Z,10.64
2019-02-27T20:20:07.592Z,10.36
2019-02-27T20:22:40.322Z,10.13
2019-02-27T20:25:15.254Z,10.13
2019-02-27T20:27:48.101Z,10.11
2019-02-27T20:30:22.768Z,9.99
2019-02-27T20:32:55.724Z,10.02
2019-02-27T20:35:26.635Z,10.01
2019-02-27T20:37:55.930Z,9.83
2019-02-27T20:40:27.605Z,9.81
2019-02-27T20:42:59.784Z,9.68
2019-02-27T20:45:50.454Z,9.66
2019-02-27T20:48:19.796Z,9.72
2019-02-27T20:50:51.564Z,9.81
2019-02-27T20:53:21.870Z,9.74
2019-02-27T20:55:51.047Z,9.72
2019-02-27T20:58:22.807Z,9.48
2019-02-27T21:00:52.691Z,9.19
2019-02-27T21:03:27.266Z,8.95
2019-02-27T21:05:57.264Z,8.89
2019-02-27T21:08:33.332Z,8.83
2019-02-27T21:11:03.394Z,8.93
2019-02-27T21:13:33.177Z,8.94
2019-02-27T21:16:04.314Z,9.12
2019-02-27T21:18:34.998Z,9.13
2019-02-27T21:21:05.986Z,9.21
2019-02-27T21:23:35.514Z,9.21
2019-02-27T21:26:05.022Z,9.11
2019-02-27T21:28:34.190Z,8.99
2019-02-27T21:31:04.717Z,9.04
2019-02-27T21:33:35.102Z,9.00
2019-02-27T21:36:05.084Z,9.09
2019-02-27T21:38:37.672Z,9.06
2019-02-27T21:41:11.463Z,9.09
2019-02-27T21:43:40.035Z,9.12
2019-02-27T21:46:11.582Z,9.07
2019-02-27T21:48:41.256Z,8.84
2019-02-27T21:51:11.027Z,8.72
2019-02-27T21:53:41.922Z,8.70
2019-02-27T21:56:15.188Z,8.69
2019-02-27T21:58:43.350Z,8.75
2019-02-27T22:01:13.094Z,7.83
2019-02-27T22:03:43.223Z,7.94
2019-02-27T22:06:12.731Z,8.02
2019-02-27T22:08:42.236Z,7.94
2019-02-27T22:11:13.340Z,8.05
2019-02-27T22:13:45.369Z,7.92
2019-02-27T22:16:13.669Z,7.86
2019-02-27T22:18:47.142Z,8.02
2019-02-27T22:21:15.837Z,7.89
2019-02-27T22:23:46.021Z,7.83
2019-02-27T22:26:15.342Z,7.80
2019-02-27T22:28:46.738Z,7.74
2019-02-27T22:31:15.947Z,7.72
2019-02-27T22:33:46.334Z,7.77
2019-02-27T22:36:15.972Z,7.77
2019-02-27T22:38:46.018Z,7.82
2019-02-27T22:41:15.304Z,8.02
2019-02-27T22:43:47.456Z,8.02
2019-02-27T22:46:19.911Z,7.92
2019-02-27T22:48:49.513Z,7.94
2019-02-27T22:51:18.743Z,7.80
2019-02-27T22:53:47.889Z,7.84
2019-02-27T22:56:17.211Z,7.75
2019-02-27T22:58:49.394Z,7.56
2019-02-27T23:01:25.343Z,7.63
2019-02-27T23:04:07.235Z,7.61
2019-02-27T23:06:43.730Z,7.59
2019-02-27T23:09:14.015Z,7.56
2019-02-27T23:11:46.425Z,7.54
2019-02-27T23:14:18.947Z,7.56
2019-02-27T23:16:47.099Z,7.65
2019-02-27T23:19:17.062Z,7.77
2019-02-27T23:21:47.408Z,7.79
2019-02-27T23:24:17.131Z,7.70
2019-02-27T23:26:54.138Z,7.41
2019-02-27T23:29:24.222Z,7.31
2019-02-27T23:31:55.810Z,7.34
2019-02-27T23:34:26.614Z,7.34
2019-02-27T23:36:56.543Z,7.30
2019-02-27T23:39:26.698Z,7.07
2019-02-27T23:41:57.157Z,7.02
2019-02-27T23:44:26.769Z,6.91
2019-02-27T23:46:58.272Z,6.82
2019-02-27T23:49:27.449Z,6.66
2019-02-27T23:51:56.901Z,6.72
2019-02-27T23:54:26.662Z,6.74
2019-02-27T23:56:56.194Z,6.75
2019-02-27T23:59:27.255Z,6.69
